Time;durP1;ratioP1;P1;durP2;ratioP2;P2;SDS_P1;SDS_P2;PMS_P1;PMS_P2;Temp;Humidity;BMP_temperature;BMP_pressure;BME280_temperature;BME280_humidity;BME280_pressure;Samples;Min_cycle;Max_cycle;Signal;HPM_P1;HPM_P2
2022/12/27 00:02:03;;;;;;;1.08;0.70;;;;;;;;;;4999060;28;20033;-89
2022/12/27 00:04:29;;;;;;;0.85;0.57;;;;;;;;;;4999497;28;20042;-90
2022/12/27 00:06:54;;;;;;;0.40;0.40;;;;;;;;;;5017299;28;20080;-90
2022/12/27 00:09:20;;;;;;;0.80;0.55;;;;;;;;;;5017676;28;20026;-90
2022/12/27 00:11:45;;;;;;;1.00;0.80;;;;;;;;;;5017329;28;20518;-90
2022/12/27 00:14:11;;;;;;;3.83;0.70;;;;;;;;;;5017068;28;20038;-90
2022/12/27 00:16:37;;;;;;;2.28;0.70;;;;;;;;;;5017080;28;20030;-90
2022/12/27 00:19:03;;;;;;;0.80;0.38;;;;;;;;;;4999074;28;20032;-89
2022/12/27 00:21:29;;;;;;;0.57;0.50;;;;;;;;;;4999600;28;20052;-89
2022/12/27 00:23:56;;;;;;;0.47;0.43;;;;;;;;;;5016610;28;20485;-89
2022/12/27 00:26:23;;;;;;;0.63;0.40;;;;;;;;;;5016788;28;20483;-89
2022/12/27 00:28:49;;;;;;;1.35;0.70;;;;;;;;;;5016913;28;20058;-89
2022/12/27 00:31:16;;;;;;;3.40;0.70;;;;;;;;;;5016659;28;20041;-90
2022/12/27 00:33:43;;;;;;;1.67;0.90;;;;;;;;;;5016737;28;20057;-90
2022/12/27 00:36:12;;;;;;;1.48;0.90;;;;;;;;;;4998613;28;20048;-89
2022/12/27 00:38:37;;;;;;;2.03;0.80;;;;;;;;;;5016477;28;20030;-89
2022/12/27 00:41:04;;;;;;;0.20;0.20;;;;;;;;;;4999409;28;20018;-89
2022/12/27 00:43:30;;;;;;;0.20;0.20;;;;;;;;;;5016850;28;20073;-89
2022/12/27 00:45:55;;;;;;;0.20;0.20;;;;;;;;;;4999346;28;20034;-89
2022/12/27 00:48:21;;;;;;;0.10;0.10;;;;;;;;;;4998804;28;20475;-89
2022/12/27 00:50:47;;;;;;;0.10;0.10;;;;;;;;;;4983089;28;20030;-89
2022/12/27 00:53:13;;;;;;;0.15;0.10;;;;;;;;;;5016670;28;20034;-89
2022/12/27 00:55:42;;;;;;;0.10;0.08;;;;;;;;;;5015732;28;20124;-89
2022/12/27 00:58:08;;;;;;;0.10;0.10;;;;;;;;;;5016791;28;20418;-89
2022/12/27 01:00:33;;;;;;;0.20;0.10;;;;;;;;;;5017075;28;20038;-89
2022/12/27 01:02:59;;;;;;;0.13;0.10;;;;;;;;;;5016474;28;20074;-89
2022/12/27 01:05:24;;;;;;;0.28;0.20;;;;;;;;;;5016720;28;20038;-89
2022/12/27 01:07:50;;;;;;;0.10;0.10;;;;;;;;;;4999107;28;20044;-89
2022/12/27 01:10:15;;;;;;;0.80;0.10;;;;;;;;;;5016581;28;20120;-89
2022/12/27 01:12:41;;;;;;;0.10;0.10;;;;;;;;;;5015745;28;20042;-89
2022/12/27 01:15:08;;;;;;;0.10;0.00;;;;;;;;;;5016602;28;20033;-89
2022/12/27 01:17:34;;;;;;;0.10;0.10;;;;;;;;;;5016699;28;20037;-89
2022/12/27 01:19:59;;;;;;;0.30;0.20;;;;;;;;;;5017179;28;20498;-90
2022/12/27 01:22:25;;;;;;;0.10;0.10;;;;;;;;;;5016438;28;20034;-90
2022/12/27 01:24:50;;;;;;;0.10;0.10;;;;;;;;;;5016368;28;20121;-90
2022/12/27 01:27:16;;;;;;;0.15;0.15;;;;;;;;;;5016675;28;20136;-89
2022/12/27 01:29:41;;;;;;;0.10;0.10;;;;;;;;;;4982803;28;20034;-89
2022/12/27 01:32:07;;;;;;;0.28;0.15;;;;;;;;;;4998205;28;20048;-89
2022/12/27 01:34:32;;;;;;;0.32;0.15;;;;;;;;;;5015539;28;20540;-89
2022/12/27 01:36:58;;;;;;;0.32;0.25;;;;;;;;;;5016238;28;20036;-89
2022/12/27 01:39:23;;;;;;;0.50;0.20;;;;;;;;;;5016689;28;20029;-89
2022/12/27 01:44:37;;;;;;;0.82;0.20;;;;;;;;;;5015534;28;20112;-89
2022/12/27 01:47:10;;;;;;;0.30;0.20;;;;;;;;;;5017277;28;20040;-89
2022/12/27 01:49:36;;;;;;;0.20;0.20;;;;;;;;;;4999197;28;20470;-89
2022/12/27 01:52:02;;;;;;;0.22;0.20;;;;;;;;;;5016119;28;20034;-89
2022/12/27 01:54:27;;;;;;;0.10;0.10;;;;;;;;;;5014286;28;20487;-89
2022/12/27 01:56:54;;;;;;;0.60;0.22;;;;;;;;;;5016027;28;20041;-89
2022/12/27 01:59:20;;;;;;;0.20;0.20;;;;;;;;;;5016231;28;20037;-89
2022/12/27 02:01:46;;;;;;;0.80;0.40;;;;;;;;;;5014999;28;20109;-90
2022/12/27 02:04:17;;;;;;;0.10;0.10;;;;;;;;;;5015415;28;20061;-89
2022/12/27 02:06:44;;;;;;;0.47;0.10;;;;;;;;;;5016118;28;20037;-90
2022/12/27 02:09:24;;;;;;;0.30;0.30;;;;;;;;;;5015642;28;20022;-89
2022/12/27 02:11:55;;;;;;;0.50;0.20;;;;;;;;;;5015902;28;20037;-89
2022/12/27 02:14:37;;;;;;;0.20;0.13;;;;;;;;;;5014416;28;20033;-89
2022/12/27 02:17:27;;;;;;;1.65;0.17;;;;;;;;;;5014627;28;20065;-90
2022/12/27 02:20:02;;;;;;;0.40;0.40;;;;;;;;;;5014577;28;20129;-89
2022/12/27 02:26:01;;;;;;;0.38;0.38;;;;;;;;;;5016407;28;20079;-89
2022/12/27 02:28:48;;;;;;;1.38;0.50;;;;;;;;;;5014407;28;20195;-89
2022/12/27 02:31:21;;;;;;;1.40;0.50;;;;;;;;;;5016614;28;20048;-90
2022/12/27 02:33:50;;;;;;;1.73;0.55;;;;;;;;;;5014660;28;20038;-89
2022/12/27 02:36:26;;;;;;;1.00;0.60;;;;;;;;;;5014945;28;20034;-89
2022/12/27 02:38:56;;;;;;;2.05;0.70;;;;;;;;;;5013812;28;20034;-89
2022/12/27 02:57:07;;;;;;;1.33;0.80;;;;;;;;;;5015401;28;20117;-90
2022/12/27 02:58:43;;;;;;;1.77;0.82;;;;;;;;;;5015912;28;20042;-89
2022/12/27 03:04:53;;;;;;;1.08;0.88;;;;;;;;;;5014635;28;20042;-89
2022/12/27 03:07:24;;;;;;;2.35;0.90;;;;;;;;;;4998734;28;20045;-89
2022/12/27 03:16:22;;;;;;;1.98;0.68;;;;;;;;;;5009661;28;20057;-89
2022/12/27 03:19:11;;;;;;;2.92;0.77;;;;;;;;;;4998090;28;20038;-89
2022/12/27 03:27:21;;;;;;;2.65;1.05;;;;;;;;;;5000294;28;20034;-88
2022/12/27 03:35:26;;;;;;;1.63;1.00;;;;;;;;;;5000197;28;20393;-89
2022/12/27 03:38:03;;;;;;;0.98;0.80;;;;;;;;;;5018947;28;20481;-90
2022/12/27 03:40:33;;;;;;;1.45;0.82;;;;;;;;;;5017587;28;20164;-89
2022/12/27 03:43:11;;;;;;;1.38;0.70;;;;;;;;;;5019116;28;20510;-88
2022/12/27 03:49:04;;;;;;;1.13;0.65;;;;;;;;;;5019310;28;20041;-88
2022/12/27 03:51:36;;;;;;;1.52;0.80;;;;;;;;;;5018781;28;20517;-88
2022/12/27 03:54:10;;;;;;;1.17;0.80;;;;;;;;;;5018078;28;20037;-89
2022/12/27 03:56:36;;;;;;;0.85;0.60;;;;;;;;;;5019021;28;20060;-88
2022/12/27 03:59:03;;;;;;;1.00;0.50;;;;;;;;;;5017990;28;20472;-89
2022/12/27 04:01:29;;;;;;;1.90;0.70;;;;;;;;;;5018480;28;20064;-89
2022/12/27 04:03:54;;;;;;;0.95;0.70;;;;;;;;;;5018246;28;20494;-90
2022/12/27 04:06:20;;;;;;;2.35;0.90;;;;;;;;;;5019232;28;20033;-89
2022/12/27 04:36:06;;;;;;;1.08;0.70;;;;;;;;;;5020561;28;20026;-88
2022/12/27 04:38:32;;;;;;;0.82;0.60;;;;;;;;;;5003523;28;20026;-89
2022/12/27 04:55:27;;;;;;;1.50;0.77;;;;;;;;;;5019913;28;20087;-89
2022/12/27 04:57:53;;;;;;;1.40;0.82;;;;;;;;;;5020357;28;20065;-89
2022/12/27 05:03:15;;;;;;;1.83;0.80;;;;;;;;;;5020137;28;20066;-89
2022/12/27 05:05:43;;;;;;;2.35;0.80;;;;;;;;;;5019573;28;20445;-89
2022/12/27 05:16:25;;;;;;;1.85;0.77;;;;;;;;;;5018433;28;20030;-87
2022/12/27 05:18:51;;;;;;;0.90;0.70;;;;;;;;;;5016892;28;20026;-87
2022/12/27 05:21:17;;;;;;;0.98;0.55;;;;;;;;;;5018163;28;20125;-87
2022/12/27 05:26:27;;;;;;;;;;;;;;;;;;5018494;28;20041;-88
2022/12/27 05:28:55;;;;;;;1.20;0.80;;;;;;;;;;5017532;28;20297;-87
2022/12/27 05:31:22;;;;;;;1.70;0.90;;;;;;;;;;5000184;28;20073;-88
2022/12/27 05:33:49;;;;;;;2.20;0.90;;;;;;;;;;5000134;28;20033;-87
2022/12/27 05:36:15;;;;;;;1.30;0.80;;;;;;;;;;5016407;28;20040;-87
2022/12/27 05:38:41;;;;;;;1.55;0.90;;;;;;;;;;5018375;28;20124;-87
2022/12/27 05:41:06;;;;;;;1.63;0.80;;;;;;;;;;5000348;28;20038;-87
2022/12/27 05:43:32;;;;;;;1.83;1.00;;;;;;;;;;5017802;28;20018;-87
2022/12/27 05:46:06;;;;;;;1.45;0.80;;;;;;;;;;5016990;28;20034;-87
2022/12/27 05:48:33;;;;;;;2.65;0.90;;;;;;;;;;4999930;28;20038;-88
2022/12/27 05:51:02;;;;;;;2.17;0.95;;;;;;;;;;5017220;28;20057;-87
2022/12/27 05:53:28;;;;;;;3.08;0.90;;;;;;;;;;5015531;28;20073;-88
2022/12/27 05:55:57;;;;;;;2.22;1.08;;;;;;;;;;5017158;28;20038;-87
2022/12/27 05:58:23;;;;;;;2.28;1.00;;;;;;;;;;5018118;28;20088;-87
2022/12/27 06:00:49;;;;;;;1.25;0.95;;;;;;;;;;5017881;28;20049;-87
2022/12/27 06:03:14;;;;;;;1.35;0.93;;;;;;;;;;5017368;28;20030;-88
2022/12/27 06:05:40;;;;;;;2.50;1.00;;;;;;;;;;5015748;28;20037;-87
2022/12/27 06:08:05;;;;;;;1.58;0.80;;;;;;;;;;5016151;28;20053;-87
2022/12/27 06:10:31;;;;;;;2.05;0.88;;;;;;;;;;5016889;28;20693;-87
2022/12/27 06:13:01;;;;;;;2.15;1.10;;;;;;;;;;5017071;28;20060;-87
2022/12/27 06:15:27;;;;;;;1.63;0.90;;;;;;;;;;5015760;28;20483;-87
2022/12/27 06:17:53;;;;;;;2.92;1.08;;;;;;;;;;5000529;28;20029;-87
2022/12/27 06:20:19;;;;;;;1.50;0.95;;;;;;;;;;5017335;28;20483;-87
2022/12/27 06:22:44;;;;;;;1.67;0.98;;;;;;;;;;5018315;28;20056;-87
2022/12/27 06:25:10;;;;;;;2.70;0.85;;;;;;;;;;5016608;28;20053;-87
2022/12/27 06:27:36;;;;;;;3.33;1.20;;;;;;;;;;5018418;28;20056;-86
2022/12/27 06:30:02;;;;;;;2.25;1.35;;;;;;;;;;5016940;28;20092;-87
2022/12/27 06:32:27;;;;;;;5.07;2.58;;;;;;;;;;5001219;28;20448;-86
2022/12/27 06:34:53;;;;;;;6.82;2.15;;;;;;;;;;5017540;28;20505;-86
2022/12/27 06:37:18;;;;;;;6.22;2.42;;;;;;;;;;5018294;28;20030;-87
2022/12/27 06:39:44;;;;;;;3.05;1.58;;;;;;;;;;4999884;28;20034;-87
2022/12/27 06:42:09;;;;;;;2.67;1.40;;;;;;;;;;5018209;28;20445;-88
2022/12/27 06:44:35;;;;;;;3.10;1.60;;;;;;;;;;5016527;28;20557;-86
2022/12/27 06:47:01;;;;;;;2.72;1.50;;;;;;;;;;5017917;28;20069;-86
2022/12/27 06:49:26;;;;;;;3.90;1.48;;;;;;;;;;5017548;28;20061;-87
2022/12/27 06:51:53;;;;;;;2.40;1.15;;;;;;;;;;5017785;28;20048;-84
2022/12/27 06:54:18;;;;;;;2.33;1.10;;;;;;;;;;5016975;28;20095;-86
2022/12/27 06:56:44;;;;;;;2.70;1.20;;;;;;;;;;5017728;28;20038;-87
2022/12/27 06:59:09;;;;;;;3.33;1.10;;;;;;;;;;5000527;28;20045;-87
2022/12/27 07:01:35;;;;;;;2.05;1.15;;;;;;;;;;5029161;28;20030;-85
2022/12/27 07:04:00;;;;;;;2.38;1.00;;;;;;;;;;5028589;28;20061;-86
2022/12/27 07:06:28;;;;;;;4.18;1.20;;;;;;;;;;5018309;28;20048;-86
2022/12/27 07:08:55;;;;;;;3.47;1.35;;;;;;;;;;5017357;28;20501;-87
2022/12/27 07:11:21;;;;;;;3.70;1.35;;;;;;;;;;5018653;28;20034;-87
2022/12/27 07:13:50;;;;;;;2.83;1.40;;;;;;;;;;5017911;28;20033;-86
2022/12/27 07:16:18;;;;;;;3.28;1.50;;;;;;;;;;5018467;28;20126;-90
2022/12/27 07:18:44;;;;;;;2.42;1.30;;;;;;;;;;5018407;28;20037;-87
2022/12/27 07:21:15;;;;;;;2.15;1.33;;;;;;;;;;5017718;28;20402;-87
2022/12/27 07:23:40;;;;;;;4.22;1.92;;;;;;;;;;5018747;28;20037;-88
2022/12/27 07:26:07;;;;;;;2.30;1.30;;;;;;;;;;5016942;28;20474;-86
2022/12/27 07:28:33;;;;;;;2.00;1.30;;;;;;;;;;5019587;28;20026;-86
2022/12/27 07:30:59;;;;;;;4.05;1.58;;;;;;;;;;5018329;28;20042;-86
2022/12/27 07:33:24;;;;;;;4.57;1.50;;;;;;;;;;5020716;28;20043;-85
2022/12/27 07:35:57;;;;;;;2.83;1.42;;;;;;;;;;5019716;28;20034;-87
2022/12/27 07:38:23;;;;;;;4.05;1.67;;;;;;;;;;5016819;28;20034;-88
2022/12/27 07:40:48;;;;;;;3.45;2.20;;;;;;;;;;5017620;28;20107;-87
2022/12/27 07:43:14;;;;;;;4.35;2.22;;;;;;;;;;5020835;28;20037;-86
2022/12/27 07:45:40;;;;;;;3.90;1.90;;;;;;;;;;5023170;28;20409;-87
2022/12/27 07:48:05;;;;;;;4.25;2.50;;;;;;;;;;5021982;28;20038;-87
2022/12/27 07:50:31;;;;;;;6.03;4.00;;;;;;;;;;5021304;28;20030;-87
2022/12/27 07:52:56;;;;;;;7.97;3.70;;;;;;;;;;5022199;28;20442;-87
2022/12/27 07:55:23;;;;;;;8.93;4.88;;;;;;;;;;5021207;28;20038;-88
2022/12/27 07:57:48;;;;;;;7.80;4.82;;;;;;;;;;5022258;28;20033;-88
2022/12/27 08:00:14;;;;;;;4.38;3.08;;;;;;;;;;5021990;28;20386;-86
2022/12/27 08:02:42;;;;;;;8.15;3.70;;;;;;;;;;5021613;28;20053;-87
2022/12/27 08:05:08;;;;;;;3.53;1.90;;;;;;;;;;5003672;28;20084;-86
2022/12/27 08:07:35;;;;;;;3.28;1.48;;;;;;;;;;5021720;28;20041;-87
2022/12/27 08:10:01;;;;;;;2.22;1.40;;;;;;;;;;5004821;28;20037;-87
2022/12/27 08:12:26;;;;;;;2.42;1.20;;;;;;;;;;5021872;28;20038;-88
2022/12/27 08:14:52;;;;;;;6.18;1.50;;;;;;;;;;5021327;28;20486;-88
2022/12/27 08:17:25;;;;;;;2.13;1.33;;;;;;;;;;5002748;28;20030;-86
2022/12/27 08:19:52;;;;;;;1.42;1.20;;;;;;;;;;5022093;28;20048;-86
2022/12/27 08:22:18;;;;;;;2.30;1.30;;;;;;;;;;5038616;28;20435;-86
2022/12/27 08:24:43;;;;;;;2.83;1.38;;;;;;;;;;5041106;28;20055;-89
2022/12/27 08:27:09;;;;;;;2.20;1.60;;;;;;;;;;5023911;28;20037;-90
2022/12/27 08:29:35;;;;;;;3.45;1.60;;;;;;;;;;5040428;28;20030;-88
2022/12/27 08:32:01;;;;;;;4.25;1.90;;;;;;;;;;5042905;28;20041;-89
2022/12/27 08:34:27;;;;;;;3.33;1.90;;;;;;;;;;5043345;28;20037;-87
2022/12/27 08:36:52;;;;;;;6.65;1.80;;;;;;;;;;5042456;28;20068;-86
2022/12/27 08:39:19;;;;;;;5.28;3.20;;;;;;;;;;5043065;28;20040;-87
2022/12/27 08:41:45;;;;;;;9.32;5.60;;;;;;;;;;5039027;28;20026;-90
2022/12/27 08:44:12;;;;;;;9.50;5.53;;;;;;;;;;5040807;28;20044;-91
2022/12/27 08:46:37;;;;;;;7.75;3.97;;;;;;;;;;5040237;28;20148;-89
2022/12/27 08:49:03;;;;;;;10.68;5.80;;;;;;;;;;5043242;28;20057;-88
2022/12/27 08:51:29;;;;;;;9.70;7.05;;;;;;;;;;5023740;28;20101;-91
2022/12/27 08:53:55;;;;;;;9.20;5.82;;;;;;;;;;5038626;28;20033;-91
2022/12/27 08:56:20;;;;;;;7.78;5.68;;;;;;;;;;5025585;28;20028;-88
2022/12/27 08:58:49;;;;;;;6.82;4.10;;;;;;;;;;5024837;28;20061;-90
2022/12/27 09:01:15;;;;;;;6.53;4.18;;;;;;;;;;5024553;28;20072;-88
2022/12/27 09:03:40;;;;;;;4.30;3.50;;;;;;;;;;5041625;28;20030;-90
2022/12/27 09:06:14;;;;;;;4.68;3.45;;;;;;;;;;5040730;28;20410;-87
2022/12/27 09:08:40;;;;;;;4.63;2.53;;;;;;;;;;5023477;28;20041;-89
2022/12/27 09:11:20;;;;;;;3.38;2.10;;;;;;;;;;5043293;28;20037;-89
2022/12/27 09:13:46;;;;;;;4.35;2.83;;;;;;;;;;5042886;28;20124;-89
2022/12/27 09:16:14;;;;;;;5.40;2.90;;;;;;;;;;5041586;28;20053;-89
2022/12/27 09:18:41;;;;;;;6.78;3.67;;;;;;;;;;5040446;28;20061;-88
2022/12/27 09:21:11;;;;;;;7.63;4.00;;;;;;;;;;5040353;28;20041;-88
2022/12/27 09:23:37;;;;;;;9.30;5.43;;;;;;;;;;5041560;28;20041;-86
2022/12/27 09:26:08;;;;;;;9.65;5.53;;;;;;;;;;5020885;28;20029;-88
2022/12/27 09:28:35;;;;;;;7.75;3.97;;;;;;;;;;5039990;28;20041;-89
2022/12/27 09:31:00;;;;;;;5.95;3.65;;;;;;;;;;5039908;28;20027;-89
2022/12/27 09:33:27;;;;;;;8.23;2.78;;;;;;;;;;5039094;28;20045;-88
2022/12/27 09:35:52;;;;;;;9.13;3.20;;;;;;;;;;5038193;28;20087;-90
2022/12/27 09:38:18;;;;;;;6.18;2.97;;;;;;;;;;5038738;28;20449;-88
2022/12/27 09:40:55;;;;;;;5.72;3.00;;;;;;;;;;5039081;28;20033;-88
2022/12/27 09:43:25;;;;;;;6.75;3.90;;;;;;;;;;5020563;28;20037;-88
2022/12/27 09:45:55;;;;;;;6.72;4.28;;;;;;;;;;5037383;28;20068;-88
2022/12/27 09:48:35;;;;;;;5.88;3.22;;;;;;;;;;5019769;28;20133;-89
2022/12/27 09:51:11;;;;;;;5.32;2.53;;;;;;;;;;5037586;28;20044;-89
2022/12/27 09:53:43;;;;;;;6.47;2.50;;;;;;;;;;5027655;28;20113;-90
2022/12/27 09:56:11;;;;;;;8.02;3.00;;;;;;;;;;5017871;28;20030;-87
2022/12/27 09:58:47;;;;;;;6.88;2.40;;;;;;;;;;5019073;28;20022;-88
2022/12/27 10:01:35;;;;;;;5.15;2.10;;;;;;;;;;5020122;28;20037;-88
2022/12/27 10:04:02;;;;;;;9.25;3.22;;;;;;;;;;5001164;28;20033;-88
2022/12/27 10:06:27;;;;;;;2.95;1.55;;;;;;;;;;5019026;28;20120;-88
2022/12/27 10:09:05;;;;;;;3.65;1.55;;;;;;;;;;5017879;28;20119;-88
2022/12/27 10:11:36;;;;;;;2.53;1.50;;;;;;;;;;5018628;28;20442;-89
2022/12/27 10:14:32;;;;;;;2.47;1.60;;;;;;;;;;5018739;28;20034;-88
2022/12/27 10:17:08;;;;;;;5.20;2.50;;;;;;;;;;5019038;28;20050;-88
2022/12/27 10:20:00;;;;;;;3.88;2.13;;;;;;;;;;5018624;28;20419;-88
2022/12/27 10:22:34;;;;;;;4.82;2.72;;;;;;;;;;5018124;28;20161;-89
2022/12/27 10:25:07;;;;;;;7.32;4.70;;;;;;;;;;4984178;28;20092;-88
2022/12/27 10:27:33;;;;;;;5.85;3.47;;;;;;;;;;5018623;28;20041;-89
2022/12/27 10:30:02;;;;;;;6.72;3.38;;;;;;;;;;5018525;28;20061;-88
2022/12/27 10:32:27;;;;;;;5.22;3.00;;;;;;;;;;5019023;28;20038;-88
2022/12/27 10:35:00;;;;;;;5.18;3.30;;;;;;;;;;5018242;28;20038;-89
2022/12/27 10:37:26;;;;;;;5.78;2.38;;;;;;;;;;5018610;28;20038;-89
2022/12/27 10:39:51;;;;;;;5.25;2.45;;;;;;;;;;5018383;28;20121;-89
2022/12/27 10:42:37;;;;;;;4.70;2.53;;;;;;;;;;5018044;28;20062;-88
2022/12/27 10:45:25;;;;;;;6.32;3.22;;;;;;;;;;5016629;28;20095;-89
2022/12/27 10:47:52;;;;;;;7.32;3.70;;;;;;;;;;5018390;28;20096;-89
2022/12/27 10:50:22;;;;;;;6.47;3.55;;;;;;;;;;5018290;28;20060;-88
2022/12/27 10:52:48;;;;;;;4.50;2.17;;;;;;;;;;5000709;28;20112;-88
2022/12/27 10:55:33;;;;;;;5.50;2.00;;;;;;;;;;5018575;28;20103;-88
2022/12/27 10:58:19;;;;;;;2.22;1.00;;;;;;;;;;5018690;28;20038;-87
2022/12/27 11:00:56;;;;;;;1.48;0.77;;;;;;;;;;5001335;28;20041;-88
2022/12/27 11:03:22;;;;;;;1.35;0.80;;;;;;;;;;5018846;28;20038;-88
2022/12/27 11:06:04;;;;;;;2.88;0.80;;;;;;;;;;5017653;28;20041;-90
2022/12/27 11:08:30;;;;;;;1.92;0.77;;;;;;;;;;5018700;28;20041;-89
2022/12/27 11:11:19;;;;;;;2.67;0.70;;;;;;;;;;5021341;28;20034;-88
2022/12/27 11:13:46;;;;;;;1.20;0.50;;;;;;;;;;5019505;28;20042;-88
2022/12/27 11:16:30;;;;;;;1.38;0.70;;;;;;;;;;5017295;28;20038;-88
2022/12/27 11:18:57;;;;;;;0.93;0.60;;;;;;;;;;4999395;28;20034;-88
2022/12/27 11:21:26;;;;;;;1.30;0.68;;;;;;;;;;5017190;28;20045;-88
2022/12/27 11:23:55;;;;;;;4.53;1.15;;;;;;;;;;5000329;28;20046;-87
2022/12/27 11:26:32;;;;;;;1.13;0.75;;;;;;;;;;5018319;28;20513;-86
2022/12/27 11:29:02;;;;;;;1.10;0.80;;;;;;;;;;5019051;28;20030;-90
2022/12/27 11:31:41;;;;;;;1.23;0.60;;;;;;;;;;5018716;28;20064;-90
2022/12/27 11:34:13;;;;;;;1.75;0.65;;;;;;;;;;5018333;28;20033;-88
2022/12/27 11:36:42;;;;;;;3.65;0.70;;;;;;;;;;5017885;28;20044;-89
2022/12/27 11:39:37;;;;;;;1.48;0.70;;;;;;;;;;5022892;28;20037;-90
2022/12/27 11:42:06;;;;;;;1.38;0.70;;;;;;;;;;5026636;28;20422;-87
2022/12/27 11:44:38;;;;;;;2.47;0.75;;;;;;;;;;5037050;28;20025;-87
2022/12/27 11:47:34;;;;;;;2.67;0.50;;;;;;;;;;5021185;28;20033;-84
2022/12/27 11:50:25;;;;;;;1.00;0.70;;;;;;;;;;5018644;28;20045;-84
2022/12/27 11:53:24;;;;;;;0.60;0.45;;;;;;;;;;5036832;28;20064;-86
2022/12/27 11:56:23;;;;;;;1.27;0.60;;;;;;;;;;5036962;28;20048;-86
2022/12/27 11:59:10;;;;;;;1.75;0.60;;;;;;;;;;5040088;28;20037;-85
2022/12/27 12:02:05;;;;;;;0.75;0.60;;;;;;;;;;5039064;28;20080;-87
2022/12/27 12:04:55;;;;;;;1.77;0.80;;;;;;;;;;5038590;28;20075;-84
2022/12/27 12:07:41;;;;;;;0.85;0.68;;;;;;;;;;5002929;28;20034;-85
2022/12/27 12:10:23;;;;;;;1.00;0.73;;;;;;;;;;5019472;28;20124;-86
2022/12/27 12:13:13;;;;;;;1.63;0.90;;;;;;;;;;5018966;28;20029;-86
2022/12/27 12:16:13;;;;;;;1.50;0.70;;;;;;;;;;5020821;28;20033;-87
2022/12/27 12:18:59;;;;;;;0.80;0.70;;;;;;;;;;5021582;28;20057;-86
2022/12/27 12:21:47;;;;;;;0.77;0.70;;;;;;;;;;5040116;28;20033;-86
2022/12/27 12:24:25;;;;;;;1.75;1.00;;;;;;;;;;5039257;28;20097;-87
2022/12/27 12:27:09;;;;;;;1.88;0.68;;;;;;;;;;5022197;28;20072;-87
2022/12/27 12:30:03;;;;;;;1.67;0.80;;;;;;;;;;5025488;28;20036;-87
2022/12/27 12:32:51;;;;;;;1.88;0.80;;;;;;;;;;5043043;28;20045;-87
2022/12/27 12:35:31;;;;;;;2.15;1.00;;;;;;;;;;5008468;28;20041;-87
2022/12/27 12:38:18;;;;;;;3.08;0.60;;;;;;;;;;5025443;28;20034;-87
2022/12/27 12:41:12;;;;;;;1.30;0.60;;;;;;;;;;5024567;28;20462;-87
2022/12/27 12:43:59;;;;;;;0.90;0.70;;;;;;;;;;5025466;28;20064;-87
2022/12/27 12:46:34;;;;;;;1.30;0.80;;;;;;;;;;5042653;28;20474;-87
2022/12/27 12:49:05;;;;;;;0.70;0.60;;;;;;;;;;5042233;28;20083;-87
2022/12/27 12:51:46;;;;;;;1.70;0.60;;;;;;;;;;5043398;28;20048;-87
2022/12/27 12:54:37;;;;;;;1.65;0.70;;;;;;;;;;5024736;28;20041;-87
2022/12/27 12:57:15;;;;;;;2.33;0.88;;;;;;;;;;5039819;28;20075;-87
2022/12/27 13:00:07;;;;;;;1.70;0.60;;;;;;;;;;5042229;28;20084;-88
2022/12/27 13:02:58;;;;;;;1.17;0.80;;;;;;;;;;5026402;28;20037;-85
2022/12/27 13:05:39;;;;;;;1.48;0.70;;;;;;;;;;5026707;28;20041;-86
2022/12/27 13:08:21;;;;;;;1.20;0.60;;;;;;;;;;5044932;28;20030;-85
2022/12/27 13:11:11;;;;;;;1.20;0.70;;;;;;;;;;5045088;28;20045;-86
2022/12/27 13:14:04;;;;;;;1.52;0.60;;;;;;;;;;5041806;28;20044;-85
2022/12/27 13:17:18;;;;;;;1.35;0.70;;;;;;;;;;5037192;28;20044;-85
2022/12/27 13:19:55;;;;;;;2.08;0.70;;;;;;;;;;5031994;28;20049;-87
2022/12/27 13:22:33;;;;;;;1.02;0.50;;;;;;;;;;5036761;28;20025;-85
2022/12/27 13:25:32;;;;;;;1.40;0.70;;;;;;;;;;5037697;28;20564;-85
2022/12/27 13:28:25;;;;;;;0.85;0.50;;;;;;;;;;5043963;28;20048;-85
2022/12/27 13:30:56;;;;;;;1.90;0.68;;;;;;;;;;5043830;28;20171;-86
2022/12/27 13:34:03;;;;;;;3.17;0.70;;;;;;;;;;5043648;28;20089;-85
2022/12/27 13:36:34;;;;;;;1.75;0.60;;;;;;;;;;5004947;28;20057;-87
2022/12/27 13:39:40;;;;;;;0.90;0.63;;;;;;;;;;5042137;28;20104;-86
2022/12/27 13:42:17;;;;;;;1.25;0.60;;;;;;;;;;5044134;28;20060;-85
2022/12/27 13:44:48;;;;;;;1.42;0.65;;;;;;;;;;5042873;28;20187;-86
2022/12/27 13:47:41;;;;;;;0.70;0.60;;;;;;;;;;5043490;28;20097;-86
2022/12/27 13:50:44;;;;;;;2.33;0.67;;;;;;;;;;5044261;28;20490;-86
2022/12/27 13:53:51;;;;;;;1.30;0.70;;;;;;;;;;5044829;28;20060;-86
2022/12/27 13:56:34;;;;;;;1.55;0.65;;;;;;;;;;5034304;28;20049;-87
2022/12/27 13:59:00;;;;;;;;;;;;;;;;;;5029002;28;20053;-83
2022/12/27 14:01:29;;;;;;;1.60;0.80;;;;;;;;;;5046146;28;20207;-88
2022/12/27 14:04:16;;;;;;;1.13;0.80;;;;;;;;;;5027504;28;20037;-86
2022/12/27 14:06:52;;;;;;;3.42;0.80;;;;;;;;;;5046415;28;20056;-85
2022/12/27 14:09:47;;;;;;;0.80;0.60;;;;;;;;;;5041654;28;20037;-87
2022/12/27 14:12:34;;;;;;;2.40;0.70;;;;;;;;;;5042005;28;20056;-86
2022/12/27 14:15:03;;;;;;;1.85;0.90;;;;;;;;;;5041203;28;20490;-87
2022/12/27 14:18:06;;;;;;;2.10;0.88;;;;;;;;;;5042315;28;20097;-85
2022/12/27 14:20:51;;;;;;;2.13;1.15;;;;;;;;;;5041778;28;20048;-86
2022/12/27 14:23:43;;;;;;;2.10;1.20;;;;;;;;;;5041160;28;20038;-88
2022/12/27 14:26:39;;;;;;;2.33;1.00;;;;;;;;;;5038656;28;20037;-87
2022/12/27 14:29:04;;;;;;;4.28;1.40;;;;;;;;;;5042309;28;20053;-86
2022/12/27 14:31:48;;;;;;;5.18;1.10;;;;;;;;;;5041914;28;20087;-86
2022/12/27 14:34:32;;;;;;;;;;;;;;;;;;5022206;28;20034;-84
2022/12/27 14:37:04;;;;;;;1.05;0.80;;;;;;;;;;5000575;28;20011;-85
2022/12/27 14:39:51;;;;;;;2.58;0.80;;;;;;;;;;5016420;28;20049;-86
2022/12/27 14:42:54;;;;;;;4.43;0.98;;;;;;;;;;5034149;28;20108;-86
2022/12/27 14:45:57;;;;;;;3.10;1.67;;;;;;;;;;5015350;28;20033;-85
2022/12/27 14:48:53;;;;;;;2.25;0.88;;;;;;;;;;5016191;28;20060;-86
2022/12/27 14:51:56;;;;;;;50.67;17.30;;;;;;;;;;5016144;28;20099;-87
2022/12/27 14:54:51;;;;;;;103.93;30.90;;;;;;;;;;5033109;28;20037;-86
2022/12/27 14:57:41;;;;;;;131.50;38.45;;;;;;;;;;5007689;28;20140;-88
2022/12/27 15:00:19;;;;;;;95.45;30.70;;;;;;;;;;5015643;28;20041;-87
2022/12/27 15:03:20;;;;;;;79.38;24.92;;;;;;;;;;5033805;28;20065;-86
2022/12/27 15:06:07;;;;;;;19.27;7.57;;;;;;;;;;5033494;28;20029;-86
2022/12/27 15:08:41;;;;;;;15.15;6.88;;;;;;;;;;5016195;28;20099;-86
2022/12/27 15:11:36;;;;;;;19.65;9.02;;;;;;;;;;5016396;28;20033;-87
2022/12/27 15:14:29;;;;;;;20.50;9.20;;;;;;;;;;5015490;28;20034;-86
2022/12/27 15:16:55;;;;;;;13.17;7.57;;;;;;;;;;5016032;28;20033;-88
2022/12/27 15:20:05;;;;;;;10.18;5.63;;;;;;;;;;5033380;28;20095;-86
2022/12/27 15:22:48;;;;;;;19.50;9.35;;;;;;;;;;5032295;28;20052;-86
2022/12/27 15:25:23;;;;;;;42.88;19.23;;;;;;;;;;5018215;28;20225;-88
2022/12/27 15:28:07;;;;;;;55.38;29.55;;;;;;;;;;5018236;28;20111;-88
2022/12/27 15:30:49;;;;;;;27.20;13.15;;;;;;;;;;5036231;28;20455;-88
2022/12/27 15:33:28;;;;;;;6.68;3.97;;;;;;;;;;5036613;28;20071;-89
2022/12/27 15:36:13;;;;;;;9.75;6.00;;;;;;;;;;5000367;28;20034;-89
2022/12/27 15:38:50;;;;;;;18.17;10.32;;;;;;;;;;5000019;28;20053;-89
2022/12/27 15:41:54;;;;;;;7.03;4.00;;;;;;;;;;5016571;28;20113;-88
2022/12/27 15:44:41;;;;;;;12.60;7.57;;;;;;;;;;5015642;28;20040;-89
2022/12/27 15:47:38;;;;;;;11.75;6.82;;;;;;;;;;5014644;28;20465;-88
2022/12/27 15:50:32;;;;;;;12.27;5.78;;;;;;;;;;5015872;28;20044;-88
2022/12/27 15:52:57;;;;;;;6.78;4.45;;;;;;;;;;4984798;28;20501;-88
2022/12/27 15:55:38;;;;;;;15.60;9.45;;;;;;;;;;5016069;28;20038;-89
2022/12/27 15:58:13;;;;;;;20.30;13.70;;;;;;;;;;5014880;28;20034;-88
2022/12/27 16:00:40;;;;;;;17.20;10.82;;;;;;;;;;5016743;28;20446;-88
2022/12/27 16:03:33;;;;;;;14.32;8.25;;;;;;;;;;5017607;28;20445;-88
2022/12/27 16:05:58;;;;;;;6.88;3.42;;;;;;;;;;5019326;28;20410;-88
2022/12/27 16:08:34;;;;;;;4.53;2.03;;;;;;;;;;5020410;28;20044;-89
2022/12/27 16:11:04;;;;;;;2.42;1.60;;;;;;;;;;5018207;28;20129;-88
2022/12/27 16:13:40;;;;;;;4.40;2.35;;;;;;;;;;5018912;28;20037;-88
2022/12/27 16:16:09;;;;;;;5.45;3.20;;;;;;;;;;5013359;28;20033;-88
2022/12/27 16:18:50;;;;;;;7.88;3.92;;;;;;;;;;5018972;28;20061;-88
2022/12/27 16:21:25;;;;;;;7.90;4.00;;;;;;;;;;4999120;28;20048;-88
2022/12/27 16:23:54;;;;;;;7.32;3.38;;;;;;;;;;4982575;28;20038;-88
2022/12/27 16:26:32;;;;;;;12.10;6.82;;;;;;;;;;5000209;28;20072;-89
2022/12/27 16:29:13;;;;;;;13.95;7.20;;;;;;;;;;5001128;28;20030;-87
2022/12/27 16:31:43;;;;;;;8.88;5.10;;;;;;;;;;4963712;28;20042;-87
2022/12/27 16:34:27;;;;;;;4.88;2.70;;;;;;;;;;4998633;28;20042;-88
2022/12/27 16:36:53;;;;;;;;;;;;;;;;;;5002166;28;20040;-86
2022/12/27 16:39:37;;;;;;;9.90;5.10;;;;;;;;;;4982879;28;19979;-88
2022/12/27 16:42:05;;;;;;;8.02;4.30;;;;;;;;;;5018764;28;20080;-88
2022/12/27 16:44:56;;;;;;;8.98;5.15;;;;;;;;;;5027442;28;20156;-87
2022/12/27 16:47:43;;;;;;;11.82;5.60;;;;;;;;;;5027877;28;20040;-88
2022/12/27 16:50:33;;;;;;;44.42;19.00;;;;;;;;;;5012984;28;20029;-88
2022/12/27 16:53:30;;;;;;;10.48;4.65;;;;;;;;;;5034910;28;20029;-88
2022/12/27 16:56:17;;;;;;;8.13;4.10;;;;;;;;;;5039208;28;20545;-89
2022/12/27 16:58:43;;;;;;;6.60;4.00;;;;;;;;;;5023097;28;20087;-88
2022/12/27 17:01:17;;;;;;;18.05;10.32;;;;;;;;;;5016657;28;20050;-88
2022/12/27 17:03:45;;;;;;;7.43;4.55;;;;;;;;;;5019426;28;20088;-89
2022/12/27 17:06:14;;;;;;;7.10;4.40;;;;;;;;;;5018906;28;20034;-88